x

Bw Pioneer Buoy - Walker Ridge 249 (42360) Wave Buoy

2:00pm - Mon 22nd Sep 2014 All times are UTC.

  • Sig Wave height 2.3ft
  • Peak Period 6s
  • Wind
    7mph, 9mph gusts
  • Sea Temp 87°f
  • Air Temp 82°f
  • Sea Pressure 1014.7mb

More Historic Weather Station data

Upgrade to MSW Pro to gain access to the past 30 days of data for over 8000 Wavebouys and Weather Stations around the globe.

Join Pro

Comparision Forecast

View Surf forecast
   
Mon 09/22 2:00pm 2.5ft 6s 7 9 mph 1014.7mb 87f 82f
1:00pm 2.5ft 6s 7 9 mph 1014.7mb 87f 82f
12:00pm 2.5ft 5s 4 9 mph 1014.3mb 87f 82f
11:00am 2.5ft 6s 7 9 mph 1013.9mb 87f 82f
10:00am 2.5ft 5s 11 18 mph 1013mb 87f 80f
9:00am 2.5ft 6s 20 27 mph 1013.1mb 87f 80f
8:00am 3ft 7s 7 11 mph 1013.1mb 87f 83f
7:00am 3ft 6s 2 7 mph 1013.3mb 87f 83f
6:00am 3ft 7s 4 9 mph 1013.7mb 87f 83f
5:00am 3ft 7s 11 13 mph 1014.1mb 87f 84f
4:00am 3ft 7s 13 20 mph 1014.1mb 87f 84f
3:00am 3ft 7s 20 25 mph 1013.6mb 87f 84f
2:00am 3ft 7s 20 27 mph 1013.5mb 87f 84f
1:00am 3ft 8s 16 18 mph 1012.8mb 88f 83f
12:00am 3ft 7s 9 13 mph 1012.7mb 88f 83f
Sun 09/21 11:00pm 3.5ft 8s 9 13 mph 1012.5mb 88f 83f
10:00pm 3.5ft 8s 9 11 mph 1012.6mb 88f 83f
9:00pm 3.5ft 8s 4 9 mph 1012.8mb 88f 83f
8:00pm 3.5ft 8s 7 11 mph 1013.3mb 88f 82f
7:00pm 3.5ft 7s 4 7 mph 1013.9mb 87f 82f
6:00pm 3.5ft 8s 13 25 mph 1013.8mb 87f 83f
5:00pm 3.5ft 8s 2 4 mph 1014.9mb 87f 85f
4:00pm 4ft 8s  -  4 mph 1015mb 87f 85f
3:00pm 4.5ft 8s 2 7 mph 1014.3mb 87f 85f
2:00pm 3.5ft 8s 4 7 mph 1014.1mb 87f 83f
1:00pm 4.5ft 7s 4 9 mph 1013.6mb 87f 83f
12:00pm 4.5ft 7s 9 13 mph 1013.1mb 87f 83f
11:00am 4ft 8s 7 11 mph 1012.5mb 87f 83f
10:00am 4ft 8s 7 11 mph 1012.1mb 87f 83f
9:00am 4ft 8s 9 13 mph 1012mb 87f 83f
8:00am 3.5ft 7s 9 13 mph 1012mb 87f 83f
7:00am 3.5ft 7s 11 16 mph 1011.6mb 87f 83f
6:00am 3.5ft 8s 9 13 mph 1011.7mb 87f 83f
5:00am 3.5ft 8s 9 13 mph 1012mb 87f 83f
4:00am 3.5ft 8s 7 9 mph 1012.2mb 87f 83f
3:00am 3.5ft 8s 2 4 mph 1012.1mb 87f 82f
2:00am 3ft 8s 2 7 mph 1011.6mb 87f 83f
1:00am 3ft 8s 4 9 mph 1011mb 87f 83f
12:00am 3.5ft 8s 7 11 mph 1011.1mb 87f 83f
Sat 09/20 11:00pm 3.5ft 8s 2 7 mph 1010.9mb 88f 84f
10:00pm 3.5ft 8s 7 11 mph 1010.9mb 88f 84f
9:00pm 3.5ft 8s 7 11 mph 1011mb 88f 84f
8:00pm 3.5ft 8s 7 11 mph 1011.4mb 88f 84f
7:00pm 3.5ft 8s 9 11 mph 1012.1mb 88f 83f
6:00pm 4ft 8s 9 13 mph 1012.7mb 87f 83f
5:00pm 3ft 8s 9 11 mph 1013.1mb 87f 83f
4:00pm 3ft 8s 7 11 mph 1013.3mb 87f 83f
3:00pm 3ft 7s 4 9 mph 1012.7mb 87f 82f
2:00pm 3ft 8s 2 7 mph 1012.6mb 87f 83f
1:00pm 3ft 7s 4 7 mph 1012mb 87f 82f
12:00pm 2.5ft 8s 2 7 mph 1011.9mb 87f 82f
11:00am 2.5ft 7s 7 13 mph 1011.6mb 87f 82f
10:00am 2ft 8s 7 11 mph 1011.1mb 87f 82f
9:00am 1.6ft 4s 4 9 mph 1011mb 86f 82f
8:00am 1.6ft 4s 4 7 mph 1010.9mb 87f 82f
7:00am 1.6ft 4s 2 4 mph 1011.1mb 87f 81f
6:00am 1.6ft 4s 2 4 mph 1011.4mb 87f 81f
5:00am 1.6ft 4s 4 7 mph 1011.5mb 87f 81f
4:00am 1.6ft 3s 4 7 mph 1012.1mb 87f 82f
3:00am 1.6ft 4s 2 7 mph 1012.6mb 87f 81f
2:00am 1.6ft 4s 11 13 mph 1012.5mb 87f 82f
1:00am 1.6ft 4s 16 20 mph 1011.9mb 86f 82f
12:00am 1.6ft 4s 16 20 mph 1011.5mb 86f 81f
Fri 09/19 11:00pm 2ft 4s 13 18 mph 1012mb 86f 81f
10:00pm 2ft 4s 2 4 mph 1012mb 86f 80f
9:00pm 2ft 4s 4 7 mph 1011.7mb 86f 80f
8:00pm 2.5ft 4s 9 16 mph 1011.6mb 86f 79f
7:00pm 1.6ft 4s 27 36 mph 1012.8mb 86f 78f
6:00pm 1.6ft 5s 11 20 mph 1012.7mb 86f 82f
5:00pm 1.6ft 3s 11 16 mph 1013.1mb 87f 84f
4:00pm 1.6ft 3s 16 20 mph 1012.8mb 87f 84f
3:00pm 1.6ft 3s 16 20 mph 1012.5mb 87f 84f
2:00pm 1.3ft 3s 16 22 mph 1012.2mb 87f 84f
1:00pm 1.3ft 3s 13 18 mph 1012.2mb 87f 84f
12:00pm 1ft 3s 13 16 mph 1011.9mb 87f 84f
11:00am 0.7ft  -  13 18 mph 1011.5mb 87f 84f
10:00am 0.7ft  -  13 18 mph 1011.4mb 87f 83f
9:00am 0.7ft  -  11 16 mph 1011.4mb 87f 84f
8:00am 0.7ft  -  7 11 mph 1012mb 87f 84f
7:00am 0.7ft  -  7 11 mph 1012.2mb 87f 84f
6:00am 0.7ft  -  4 9 mph 1012.6mb 87f 84f
5:00am 0.7ft  -  11 13 mph 1012.8mb 87f 84f
4:00am 0.7ft  -  9 11 mph 1013.2mb 87f 84f
3:00am 1ft 4s 7 9 mph 1013.6mb 87f 84f
2:00am 1ft 4s 9 13 mph 1012.8mb 87f 84f
1:00am 1ft 2s 11 13 mph 1012.1mb 87f 84f
12:00am 1ft 6s 11 13 mph 1011.6mb 87f 84f
Thu 09/18 11:00pm 0.7ft  -  9 13 mph 1011.3mb 87f 83f
10:00pm 0.7ft  -  4 7 mph 1011.6mb 87f 84f
9:00pm 0.7ft  -  4 7 mph 1011.6mb 87f 84f
8:00pm 0.7ft  -  4 9 mph 1012.2mb 87f 84f
7:00pm 0.7ft  -  7 9 mph 1012.7mb 87f 84f
6:00pm 0.7ft  -  9 13 mph 1013.3mb 87f 84f
5:00pm 1ft 3s 11 13 mph 1013.9mb 87f 84f
4:00pm 1.3ft 3s 9 13 mph 1014.3mb 87f 84f